Terminal Aerodrome Forecast
Issued by NWS

Home | Current Version | Previous Version | Text Only | Print | Product List | Glossary On
Versions: 1 2 3 4 5 6 7 8 9 10 11 12 13 14 15 16 17 18 19 20 21 22 23 24 25
000
FTUS43 KDVN 291736
TAFCID
TAF
KCID 291736Z 2918/3018 14004KT P6SM VCSH SCT012 BKN150
     FM291900 14004KT P6SM VCTS SCT030CB BKN150
      TEMPO 2920/2924 3SM TSRA BR BKN030CB
     FM300100 VRB03KT P6SM FEW030 BKN150
     FM300600 VRB03KT 4SM BR VCSH SCT035 BKN150
     FM301000 VRB03KT 1SM BR VCSH SCT005 BKN150
     FM301400 VRB03KT 3SM BR FEW005 BKN150=

USA.gov is the U.S. government's official web portal to all federal, state and local government web resources and services.